Niantic, CT (06357)

5:22 AM EDT on August 30, 2015 (GMT -0400)
Brook Rd | | Change Station
CLOSE
Current Station
Personal Weather Station
Location: Niantic, CT
Elevation: 52 ft
Nearby Weather Stations

Elev 52 ft 41.33 °N, 72.21 °W | Updated 5 minutes ago

Clear
Clear
66.6 °F
Feels Like 66.6 °F
N
1.1
Wind Variable Wind from North

Today
High -- | Low -- °F
--% Chance of Precip.
Yesterday
High -- | Low -- °F
Precip. -- in
6:12 AM 7:25 PM
Waxing Gibbous, 99% visible
Pressure 30.07 in
Visibility 10.0 miles
Clouds Overcast 5000 ft
Dew Point 66 °F
Humidity 98%
Rainfall 0.00 in
Snow Depth Not available.
UV 0 out of 12
Pollen 9.40 out of 12
Air Quality Not available.
Flu Activity Not available.
METAR KGON 300856Z AUTO 22006KT 10SM OVC050 22/20 A3007 RMK AO2 SLP183 T02220200 56009
Pressure 30.07 in
Visibility 10.0 miles
Clouds Overcast 5000 ft
Dew Point 66 °F
Humidity 98%
Rainfall 0.00 in
Snow Depth Not available.
UV 0 out of 12
Pollen 9.40 out of 12
Air Quality Not available.
Flu Activity Not available.
METAR KGON 300856Z AUTO 22006KT 10SM OVC050 22/20 A3007 RMK AO2 SLP183 T02220200 56009

10-Day Weather Forecast

×

Almanac

Astronomy

Aug. 30, 2015 Rise Set
Actual Time
Civil Twilight
Nautical Twilight
Astronomical Twilight
Moon
Length of Visible Light
Length of Day
Tomorrow will be .
, % of the Moon is Illuminated

Today's Extremes

State Highs State Lows

Community

WunderPhotos

Upload Photos

1,850,909 photos uploaded!

WunderBlogs® & News

Nearby

Air Quality

  Air Quality AQ Index Pollutant
Not available.

Snow Depth

Station Depth Elevation

Earthquake Activity

City Distance Mag. Time & Date
Minimum magnitude displayed is 2.5.

Coastal Water Temperatures

Place Temperature

Stations

Nearby Weather Stations

Station Location Temp. Windchill Dew Point Humidity Wind Precip. Elev Updated Type